Time,TemperatureF,DewpointF,PressureIn,WindDirection,WindDirectionDegrees,WindSpeedMPH,WindSpeedGustMPH,Humidity,HourlyPrecipIn,Conditions,Clouds,dailyrainin,SoftwareType,DateUTC
2013-11-16 00:13:00,34.0,30.0,29.37,NNE,19,2.0,5.0,84,0.00,,,0.00,,2013-11-16 06:13:00,
2013-11-16 00:22:00,34.0,30.0,29.36,NNE,32,0.0,3.0,86,0.00,,,0.00,,2013-11-16 06:22:00,
2013-11-16 00:42:00,33.0,29.0,29.36,NNE,32,0.0,2.0,86,0.00,,,0.00,,2013-11-16 06:42:00,
2013-11-16 00:52:00,34.0,31.0,29.35,NNE,32,0.0,3.0,87,0.00,,,0.00,,2013-11-16 06:52:00,
2013-11-16 01:11:00,34.0,31.0,29.34,NE,34,1.0,4.0,87,0.00,,,0.00,,2013-11-16 07:11:00,
2013-11-16 01:22:00,34.0,30.0,29.32,NNE,19,0.0,2.0,85,0.00,,,0.00,,2013-11-16 07:22:00,
2013-11-16 01:42:00,34.0,30.0,29.32,NNE,13,1.0,4.0,86,0.00,,,0.00,,2013-11-16 07:42:00,
2013-11-16 01:52:00,33.0,30.0,29.31,NNE,13,0.0,2.0,88,0.00,,,0.00,,2013-11-16 07:52:00,
2013-11-16 02:12:00,34.0,31.0,29.30,NNE,21,0.0,4.0,89,0.00,,,0.00,,2013-11-16 08:12:00,
2013-11-16 02:22:00,34.0,31.0,29.30,NNE,23,0.0,2.0,88,0.00,,,0.00,,2013-11-16 08:22:00,
2013-11-16 02:42:00,36.0,33.0,29.30,SSW,213,0.0,3.0,89,0.00,,,0.00,,2013-11-16 08:42:00,
2013-11-16 02:52:00,35.0,32.0,29.30,NW,317,0.0,2.0,87,0.00,,,0.00,,2013-11-16 08:52:00,
2013-11-16 03:11:00,35.0,32.0,29.28,NW,317,0.0,1.0,88,0.00,,,0.00,,2013-11-16 09:11:00,
2013-11-16 03:22:00,35.0,32.0,29.29,NW,317,0.0,0.0,88,0.00,,,0.00,,2013-11-16 09:22:00,
2013-11-16 03:42:00,35.0,32.0,29.27,NW,317,0.0,0.0,87,0.00,,,0.00,,2013-11-16 09:42:00,
2013-11-16 03:53:00,35.0,32.0,29.27,NW,317,0.0,1.0,88,0.00,,,0.00,,2013-11-16 09:53:00,
2013-11-16 04:12:00,35.0,32.0,29.27,NW,317,0.0,1.0,88,0.00,,,0.00,,2013-11-16 10:12:00,
2013-11-16 04:23:00,35.0,32.0,29.27,NW,317,0.0,0.0,88,0.00,,,0.00,,2013-11-16 10:23:00,
2013-11-16 04:43:00,35.0,32.0,29.27,SSW,213,0.0,4.0,88,0.00,,,0.00,,2013-11-16 10:43:00,
2013-11-16 04:52:00,35.0,32.0,29.27,SSW,213,0.0,1.0,87,0.00,,,0.00,,2013-11-16 10:52:00,
2013-11-16 05:12:00,35.0,32.0,29.27,SSW,196,1.0,3.0,88,0.00,,,0.00,,2013-11-16 11:12:00,
2013-11-16 05:22:00,35.0,32.0,29.27,SSW,206,0.0,3.0,88,0.00,,,0.00,,2013-11-16 11:22:00,
2013-11-16 05:42:00,34.0,31.0,29.27,SSW,206,0.0,2.0,88,0.00,,,0.00,,2013-11-16 11:42:00,
2013-11-16 05:53:00,34.0,31.0,29.27,SSW,206,0.0,2.0,88,0.00,,,0.00,,2013-11-16 11:53:00,
2013-11-16 06:12:00,33.0,30.0,29.27,SSW,205,1.0,3.0,89,0.00,,,0.00,,2013-11-16 12:12:00,
2013-11-16 06:21:00,34.0,31.0,29.28,SSW,205,0.0,4.0,89,0.00,,,0.00,,2013-11-16 12:21:00,
2013-11-16 06:42:00,34.0,31.0,29.28,SSW,206,0.0,3.0,88,0.00,,,0.00,,2013-11-16 12:42:00,
2013-11-16 06:52:00,33.0,30.0,29.29,SSW,206,0.0,1.0,88,0.00,,,0.00,,2013-11-16 12:52:00,
2013-11-16 07:11:00,33.0,30.0,29.29,SSW,207,0.0,2.0,88,0.00,,,0.00,,2013-11-16 13:11:00,
2013-11-16 07:22:00,33.0,30.0,29.30,SSW,207,0.0,0.0,88,0.00,,,0.00,,2013-11-16 13:22:00,
2013-11-16 07:42:00,33.0,30.0,29.30,SSW,207,0.0,2.0,89,0.00,,,0.00,,2013-11-16 13:42:00,
2013-11-16 07:52:00,33.0,30.0,29.31,SSW,207,0.0,2.0,89,0.00,,,0.00,,2013-11-16 13:52:00,
2013-11-16 08:11:00,34.0,31.0,29.31,SSW,207,0.0,3.0,87,0.00,,,0.00,,2013-11-16 14:11:00,
2013-11-16 08:22:00,34.0,31.0,29.31,SSW,207,0.0,3.0,87,0.00,,,0.00,,2013-11-16 14:22:00,
2013-11-16 08:42:00,34.0,30.0,29.32,SSW,207,1.0,4.0,86,0.00,,,0.00,,2013-11-16 14:42:00,
2013-11-16 08:52:00,35.0,31.0,29.32,SSW,206,1.0,5.0,85,0.00,,,0.00,,2013-11-16 14:52:00,
2013-11-16 09:11:00,35.0,31.0,29.33,SSW,194,0.0,4.0,84,0.00,,,0.00,,2013-11-16 15:11:00,
2013-11-16 09:21:00,37.0,32.0,29.33,SSW,196,0.0,6.0,82,0.00,,,0.00,,2013-11-16 15:21:00,
2013-11-16 09:43:00,39.0,33.0,29.33,SSW,211,1.0,4.0,78,0.00,,,0.00,,2013-11-16 15:43:00,
2013-11-16 09:53:00,41.0,33.0,29.32,SSW,213,2.0,6.0,72,0.00,,,0.00,,2013-11-16 15:53:00,
2013-11-16 10:13:00,43.0,32.0,29.33,SSW,193,4.0,9.0,65,0.00,,,0.00,,2013-11-16 16:13:00,
2013-11-16 10:23:00,45.0,32.0,29.33,South,180,3.0,8.0,61,0.00,,,0.00,,2013-11-16 16:23:00,
2013-11-16 10:43:00,46.0,32.0,29.33,SW,223,3.0,8.0,58,0.00,,,0.00,,2013-11-16 16:43:00,
2013-11-16 10:53:00,49.0,32.0,29.33,SSW,207,5.0,10.0,51,0.00,,,0.00,,2013-11-16 16:53:00,
2013-11-16 11:12:00,51.0,32.0,29.31,South,184,4.0,9.0,48,0.00,,,0.00,,2013-11-16 17:12:00,
2013-11-16 11:22:00,52.0,30.0,29.32,South,186,5.0,9.0,43,0.00,,,0.00,,2013-11-16 17:22:00,
2013-11-16 11:43:00,54.0,30.0,29.32,SSE,165,6.0,11.0,40,0.00,,,0.00,,2013-11-16 17:43:00,
2013-11-16 11:52:00,54.0,30.0,29.32,SSE,165,6.0,11.0,40,0.00,,,0.00,,2013-11-16 17:52:00,
2013-11-16 12:12:00,54.0,29.0,29.32,SW,215,5.0,12.0,38,0.00,,,0.00,,2013-11-16 18:12:00,
2013-11-16 12:23:00,56.0,29.0,29.32,SSW,203,8.0,17.0,35,0.00,,,0.00,,2013-11-16 18:23:00,
2013-11-16 12:42:00,56.0,24.0,29.31,SW,217,10.0,21.0,29,0.00,,,0.00,,2013-11-16 18:42:00,
2013-11-16 12:52:00,56.0,24.0,29.31,SSW,206,9.0,20.0,29,0.00,,,0.00,,2013-11-16 18:52:00,
2013-11-16 13:12:00,56.0,26.0,29.30,SSW,194,5.0,12.0,31,0.00,,,0.00,,2013-11-16 19:12:00,
2013-11-16 13:22:00,57.0,26.0,29.30,SSW,212,5.0,13.0,30,0.00,,,0.00,,2013-11-16 19:22:00,
2013-11-16 13:42:00,59.0,26.0,29.29,SSW,200,8.0,18.0,28,0.00,,,0.00,,2013-11-16 19:42:00,
2013-11-16 13:53:00,59.0,25.0,29.29,SW,214,6.0,15.0,27,0.00,,,0.00,,2013-11-16 19:53:00,
2013-11-16 14:12:00,60.0,28.0,29.28,SW,220,4.0,11.0,29,0.00,,,0.00,,2013-11-16 20:12:00,
2013-11-16 14:22:00,59.0,27.0,29.28,SSW,199,3.0,11.0,29,0.00,,,0.00,,2013-11-16 20:22:00,
2013-11-16 14:42:00,58.0,26.0,29.29,South,184,4.0,11.0,29,0.00,,,0.00,,2013-11-16 20:42:00,
2013-11-16 15:12:00,59.0,25.0,29.28,SSW,192,3.0,9.0,27,0.00,,,0.00,,2013-11-16 21:12:00,
2013-11-16 15:22:00,58.0,25.0,29.28,SW,214,4.0,7.0,28,0.00,,,0.00,,2013-11-16 21:22:00,
2013-11-16 15:44:00,57.0,26.0,29.28,SSW,211,1.0,7.0,30,0.00,,,0.00,,2013-11-16 21:44:00,
2013-11-16 15:54:00,57.0,26.0,29.28,South,184,3.0,7.0,30,0.00,,,0.00,,2013-11-16 21:54:00,
2013-11-16 16:13:00,56.0,26.0,29.28,SSW,207,2.0,6.0,31,0.00,,,0.00,,2013-11-16 22:13:00,
2013-11-16 16:24:00,56.0,27.0,29.29,SSW,211,1.0,5.0,32,0.00,,,0.00,,2013-11-16 22:24:00,
2013-11-16 16:42:00,56.0,27.0,29.29,SSW,207,1.0,3.0,33,0.00,,,0.00,,2013-11-16 22:42:00,
2013-11-16 16:53:00,56.0,27.0,29.29,SSW,207,0.0,1.0,32,0.00,,,0.00,,2013-11-16 22:53:00,
2013-11-16 17:13:00,55.0,27.0,29.30,SSW,207,0.0,0.0,34,0.00,,,0.00,,2013-11-16 23:13:00,
2013-11-16 17:22:00,53.0,28.0,29.31,SSW,207,0.0,0.0,38,0.00,,,0.00,,2013-11-16 23:22:00,
2013-11-16 17:43:00,51.0,28.0,29.31,SSW,207,0.0,0.0,40,0.00,,,0.00,,2013-11-16 23:43:00,
2013-11-16 17:53:00,51.0,29.0,29.31,SSW,207,0.0,1.0,43,0.00,,,0.00,,2013-11-16 23:53:00,
2013-11-16 18:12:00,49.0,27.0,29.32,SSW,207,0.0,0.0,43,0.00,,,0.00,,2013-11-17 00:12:00,
2013-11-16 18:22:00,48.0,28.0,29.32,SSW,207,0.0,0.0,46,0.00,,,0.00,,2013-11-17 00:22:00,
2013-11-16 18:42:00,47.0,29.0,29.31,SSW,207,0.0,1.0,49,0.00,,,0.00,,2013-11-17 00:42:00,
2013-11-16 18:52:00,45.0,27.0,29.32,SSW,207,0.0,1.0,49,0.00,,,0.00,,2013-11-17 00:52:00,
2013-11-16 19:22:00,45.0,28.0,29.33,SSW,207,0.0,0.0,52,0.00,,,0.00,,2013-11-17 01:22:00,
2013-11-16 19:42:00,45.0,28.0,29.32,SSW,207,0.0,2.0,51,0.00,,,0.00,,2013-11-17 01:42:00,
2013-11-16 19:52:00,45.0,28.0,29.32,SSW,207,0.0,0.0,51,0.00,,,0.00,,2013-11-17 01:52:00,
2013-11-16 20:12:00,43.0,27.0,29.31,SSW,207,0.0,1.0,53,0.00,,,0.00,,2013-11-17 02:12:00,
2013-11-16 20:22:00,43.0,27.0,29.32,NE,34,0.0,4.0,52,0.00,,,0.00,,2013-11-17 02:22:00,
2013-11-16 20:52:00,42.0,27.0,29.31,NE,34,0.0,0.0,56,0.00,,,0.00,,2013-11-17 02:52:00,
2013-11-16 21:12:00,41.0,27.0,29.31,NE,34,0.0,1.0,57,0.00,,,0.00,,2013-11-17 03:12:00,
2013-11-16 21:22:00,40.0,26.0,29.32,NE,34,0.0,0.0,58,0.00,,,0.00,,2013-11-17 03:22:00,
2013-11-16 21:55:00,39.0,28.0,29.32,NE,34,0.0,2.0,64,0.00,,,0.00,,2013-11-17 03:55:00,
2013-11-16 22:03:00,-999.0,-99.9,29.33,NE,34,0.0,1.0,-999,-99.99,,,-99.99,,2013-11-17 04:03:00,
2013-11-16 22:14:00,39.0,28.0,29.33,NE,34,0.0,1.0,65,0.00,,,0.00,,2013-11-17 04:14:00,
2013-11-16 22:24:00,39.0,28.0,29.34,SSW,200,0.0,5.0,64,0.00,,,0.00,,2013-11-17 04:24:00,
2013-11-16 22:43:00,40.0,29.0,29.34,SSW,210,0.0,3.0,64,0.00,,,0.00,,2013-11-17 04:43:00,
2013-11-16 22:53:00,40.0,28.0,29.33,SSW,198,1.0,3.0,62,0.00,,,0.00,,2013-11-17 04:53:00,
2013-11-16 23:13:00,42.0,29.0,29.34,South,189,2.0,5.0,59,0.00,,,0.00,,2013-11-17 05:13:00,
2013-11-16 23:23:00,42.0,29.0,29.35,SSE,154,0.0,5.0,60,0.00,,,0.00,,2013-11-17 05:23:00,
2013-11-16 23:44:00,43.0,30.0,29.36,SSW,213,1.0,6.0,59,0.00,,,0.00,,2013-11-17 05:44:00,
2013-11-16 23:53:00,45.0,32.0,29.37,South,180,5.0,10.0,61,0.00,,,0.00,,2013-11-17 05:53:00,